sensor_id;sensor_type;location;lat;lon;timestamp;temperature;humidity
1083;DHT22;530;51.448;7.238;2023-04-15T00:00:29;9.80;99.90
1083;DHT22;530;51.448;7.238;2023-04-15T00:02:55;9.80;99.90
1083;DHT22;530;51.448;7.238;2023-04-15T00:05:21;9.80;99.90
1083;DHT22;530;51.448;7.238;2023-04-15T00:07:46;9.80;99.90
1083;DHT22;530;51.448;7.238;2023-04-15T00:10:13;9.80;99.90
1083;DHT22;530;51.448;7.238;2023-04-15T00:12:39;9.80;99.90
1083;DHT22;530;51.448;7.238;2023-04-15T00:15:06;9.80;99.90
1083;DHT22;530;51.448;7.238;2023-04-15T00:17:33;9.80;99.90
1083;DHT22;530;51.448;7.238;2023-04-15T00:19:59;9.80;99.90
1083;DHT22;530;51.448;7.238;2023-04-15T00:22:26;9.70;99.90
1083;DHT22;530;51.448;7.238;2023-04-15T00:24:52;9.70;99.90
1083;DHT22;530;51.448;7.238;2023-04-15T00:27:18;9.70;99.90
1083;DHT22;530;51.448;7.238;2023-04-15T00:29:44;9.60;99.90
1083;DHT22;530;51.448;7.238;2023-04-15T00:32:10;9.50;99.90
1083;DHT22;530;51.448;7.238;2023-04-15T00:34:36;9.40;99.90
1083;DHT22;530;51.448;7.238;2023-04-15T00:37:02;9.20;99.90
1083;DHT22;530;51.448;7.238;2023-04-15T00:39:27;9.10;99.90
1083;DHT22;530;51.448;7.238;2023-04-15T00:41:54;9.10;99.90
1083;DHT22;530;51.448;7.238;2023-04-15T00:44:20;9.20;99.90
1083;DHT22;530;51.448;7.238;2023-04-15T00:46:46;9.20;99.90
1083;DHT22;530;51.448;7.238;2023-04-15T00:49:13;9.20;99.90
1083;DHT22;530;51.448;7.238;2023-04-15T00:51:38;9.10;99.90
1083;DHT22;530;51.448;7.238;2023-04-15T00:54:05;9.20;99.90
1083;DHT22;530;51.448;7.238;2023-04-15T00:56:35;9.20;99.90
1083;DHT22;530;51.448;7.238;2023-04-15T00:59:01;9.20;99.90
1083;DHT22;530;51.448;7.238;2023-04-15T01:01:27;9.20;99.90
1083;DHT22;530;51.448;7.238;2023-04-15T01:03:56;9.20;99.90
1083;DHT22;530;51.448;7.238;2023-04-15T01:06:23;9.20;99.90
1083;DHT22;530;51.448;7.238;2023-04-15T01:08:49;9.10;99.90
1083;DHT22;530;51.448;7.238;2023-04-15T01:11:16;9.10;99.90
1083;DHT22;530;51.448;7.238;2023-04-15T01:13:42;9.00;99.90
1083;DHT22;530;51.448;7.238;2023-04-15T01:16:08;9.10;99.90
1083;DHT22;530;51.448;7.238;2023-04-15T01:18:36;9.10;99.90
1083;DHT22;530;51.448;7.238;2023-04-15T01:21:03;9.10;99.90
1083;DHT22;530;51.448;7.238;2023-04-15T01:23:30;9.30;99.90
1083;DHT22;530;51.448;7.238;2023-04-15T01:25:57;9.10;99.90
1083;DHT22;530;51.448;7.238;2023-04-15T01:28:23;8.90;99.90
1083;DHT22;530;51.448;7.238;2023-04-15T01:30:50;9.10;99.90
1083;DHT22;530;51.448;7.238;2023-04-15T01:33:15;9.10;99.90
1083;DHT22;530;51.448;7.238;2023-04-15T01:35:42;9.10;99.90
1083;DHT22;530;51.448;7.238;2023-04-15T01:38:09;9.10;99.90
1083;DHT22;530;51.448;7.238;2023-04-15T01:40:35;9.10;99.90
1083;DHT22;530;51.448;7.238;2023-04-15T01:43:01;9.00;99.90
1083;DHT22;530;51.448;7.238;2023-04-15T01:45:28;9.00;99.90
1083;DHT22;530;51.448;7.238;2023-04-15T01:47:54;8.90;99.90
1083;DHT22;530;51.448;7.238;2023-04-15T01:50:20;8.90;99.90
1083;DHT22;530;51.448;7.238;2023-04-15T01:52:46;8.80;99.90
1083;DHT22;530;51.448;7.238;2023-04-15T01:55:13;8.90;99.90
1083;DHT22;530;51.448;7.238;2023-04-15T01:57:39;8.70;99.90
1083;DHT22;530;51.448;7.238;2023-04-15T02:00:06;8.90;99.90
1083;DHT22;530;51.448;7.238;2023-04-15T02:02:32;8.70;99.90
1083;DHT22;530;51.448;7.238;2023-04-15T02:04:58;8.50;99.90
1083;DHT22;530;51.448;7.238;2023-04-15T02:07:25;8.70;99.90
1083;DHT22;530;51.448;7.238;2023-04-15T02:09:53;8.70;99.90
1083;DHT22;530;51.448;7.238;2023-04-15T02:12:19;8.70;99.90
1083;DHT22;530;51.448;7.238;2023-04-15T02:14:44;8.60;99.90
1083;DHT22;530;51.448;7.238;2023-04-15T02:17:10;8.50;99.90
1083;DHT22;530;51.448;7.238;2023-04-15T02:19:36;8.30;99.90
1083;DHT22;530;51.448;7.238;2023-04-15T02:22:02;8.40;99.90
1083;DHT22;530;51.448;7.238;2023-04-15T02:24:28;8.40;99.90
1083;DHT22;530;51.448;7.238;2023-04-15T02:26:55;8.30;99.90
1083;DHT22;530;51.448;7.238;2023-04-15T02:29:21;8.30;99.90
1083;DHT22;530;51.448;7.238;2023-04-15T02:31:48;8.20;99.90
1083;DHT22;530;51.448;7.238;2023-04-15T02:34:14;8.30;99.90
1083;DHT22;530;51.448;7.238;2023-04-15T02:36:39;8.30;99.90
1083;DHT22;530;51.448;7.238;2023-04-15T02:39:05;8.20;99.90
1083;DHT22;530;51.448;7.238;2023-04-15T02:41:31;8.30;99.90
1083;DHT22;530;51.448;7.238;2023-04-15T02:43:57;8.40;99.90
1083;DHT22;530;51.448;7.238;2023-04-15T02:46:23;8.20;99.90
1083;DHT22;530;51.448;7.238;2023-04-15T02:48:49;8.20;99.90
1083;DHT22;530;51.448;7.238;2023-04-15T02:51:17;8.30;99.90
1083;DHT22;530;51.448;7.238;2023-04-15T02:53:47;8.20;99.90
1083;DHT22;530;51.448;7.238;2023-04-15T02:56:14;8.10;99.90
1083;DHT22;530;51.448;7.238;2023-04-15T02:58:40;8.10;99.90
1083;DHT22;530;51.448;7.238;2023-04-15T03:01:07;8.10;99.90
1083;DHT22;530;51.448;7.238;2023-04-15T03:03:33;7.90;99.90
1083;DHT22;530;51.448;7.238;2023-04-15T03:05:59;8.00;99.90
1083;DHT22;530;51.448;7.238;2023-04-15T03:08:25;8.00;99.90
1083;DHT22;530;51.448;7.238;2023-04-15T03:10:51;8.00;99.90
1083;DHT22;530;51.448;7.238;2023-04-15T03:13:18;8.10;99.90
1083;DHT22;530;51.448;7.238;2023-04-15T03:15:45;8.10;99.90
1083;DHT22;530;51.448;7.238;2023-04-15T03:18:11;8.00;99.90
1083;DHT22;530;51.448;7.238;2023-04-15T03:20:37;7.90;99.90
1083;DHT22;530;51.448;7.238;2023-04-15T03:23:03;8.00;99.90
1083;DHT22;530;51.448;7.238;2023-04-15T03:25:28;8.00;99.90
1083;DHT22;530;51.448;7.238;2023-04-15T03:27:54;7.80;99.90
1083;DHT22;530;51.448;7.238;2023-04-15T03:30:20;7.90;99.90
1083;DHT22;530;51.448;7.238;2023-04-15T03:32:45;7.80;99.90
1083;DHT22;530;51.448;7.238;2023-04-15T03:35:11;7.90;99.90
1083;DHT22;530;51.448;7.238;2023-04-15T03:37:37;8.00;99.90
1083;DHT22;530;51.448;7.238;2023-04-15T03:40:03;7.90;99.90
1083;DHT22;530;51.448;7.238;2023-04-15T03:42:28;7.90;99.90
1083;DHT22;530;51.448;7.238;2023-04-15T03:44:54;8.10;99.90
1083;DHT22;530;51.448;7.238;2023-04-15T03:47:20;8.10;99.90
1083;DHT22;530;51.448;7.238;2023-04-15T03:49:46;7.90;99.90
1083;DHT22;530;51.448;7.238;2023-04-15T03:52:11;7.80;99.90
1083;DHT22;530;51.448;7.238;2023-04-15T03:54:37;8.10;99.90
1083;DHT22;530;51.448;7.238;2023-04-15T03:57:02;8.00;99.90
1083;DHT22;530;51.448;7.238;2023-04-15T03:59:28;7.90;99.90
1083;DHT22;530;51.448;7.238;2023-04-15T04:01:54;8.00;99.90
1083;DHT22;530;51.448;7.238;2023-04-15T04:04:19;8.00;99.90
1083;DHT22;530;51.448;7.238;2023-04-15T04:06:45;8.10;99.90
1083;DHT22;530;51.448;7.238;2023-04-15T04:09:11;7.90;99.90
1083;DHT22;530;51.448;7.238;2023-04-15T04:11:36;8.00;99.90
1083;DHT22;530;51.448;7.238;2023-04-15T04:14:02;7.90;99.90
1083;DHT22;530;51.448;7.238;2023-04-15T04:16:28;7.90;99.90
1083;DHT22;530;51.448;7.238;2023-04-15T04:18:53;7.90;99.90
1083;DHT22;530;51.448;7.238;2023-04-15T04:21:19;8.00;99.90
1083;DHT22;530;51.448;7.238;2023-04-15T04:23:45;7.70;99.90
1083;DHT22;530;51.448;7.238;2023-04-15T04:26:11;7.90;99.90
1083;DHT22;530;51.448;7.238;2023-04-15T04:28:37;7.70;99.90
1083;DHT22;530;51.448;7.238;2023-04-15T04:31:05;7.70;99.90
1083;DHT22;530;51.448;7.238;2023-04-15T04:33:32;7.90;99.90
1083;DHT22;530;51.448;7.238;2023-04-15T04:35:58;7.70;99.90
1083;DHT22;530;51.448;7.238;2023-04-15T04:38:23;7.70;99.90
1083;DHT22;530;51.448;7.238;2023-04-15T04:40:49;7.70;99.90
1083;DHT22;530;51.448;7.238;2023-04-15T04:43:15;7.70;99.90
1083;DHT22;530;51.448;7.238;2023-04-15T04:45:41;7.70;99.90
1083;DHT22;530;51.448;7.238;2023-04-15T04:48:07;7.60;99.90
1083;DHT22;530;51.448;7.238;2023-04-15T04:50:34;7.60;99.90
1083;DHT22;530;51.448;7.238;2023-04-15T04:53:01;7.60;99.90
1083;DHT22;530;51.448;7.238;2023-04-15T04:55:26;7.80;99.90
1083;DHT22;530;51.448;7.238;2023-04-15T04:57:52;7.60;99.90
1083;DHT22;530;51.448;7.238;2023-04-15T05:00:18;7.60;99.90
1083;DHT22;530;51.448;7.238;2023-04-15T05:02:44;7.80;99.90
1083;DHT22;530;51.448;7.238;2023-04-15T05:05:10;7.60;99.90
1083;DHT22;530;51.448;7.238;2023-04-15T05:07:37;7.60;99.90
1083;DHT22;530;51.448;7.238;2023-04-15T05:10:04;7.60;99.90
1083;DHT22;530;51.448;7.238;2023-04-15T05:12:30;7.70;99.90
1083;DHT22;530;51.448;7.238;2023-04-15T05:14:56;7.60;99.90
1083;DHT22;530;51.448;7.238;2023-04-15T05:17:22;7.60;99.90
1083;DHT22;530;51.448;7.238;2023-04-15T05:19:48;7.70;99.90
1083;DHT22;530;51.448;7.238;2023-04-15T05:22:13;7.70;99.90
1083;DHT22;530;51.448;7.238;2023-04-15T05:24:39;7.80;99.90
1083;DHT22;530;51.448;7.238;2023-04-15T05:27:05;7.70;99.90
1083;DHT22;530;51.448;7.238;2023-04-15T05:29:30;7.70;99.90
1083;DHT22;530;51.448;7.238;2023-04-15T05:31:56;7.50;99.90
1083;DHT22;530;51.448;7.238;2023-04-15T05:34:22;7.70;99.90
1083;DHT22;530;51.448;7.238;2023-04-15T05:36:47;7.80;99.90
1083;DHT22;530;51.448;7.238;2023-04-15T05:39:13;7.70;99.90
1083;DHT22;530;51.448;7.238;2023-04-15T05:41:39;7.70;99.90
1083;DHT22;530;51.448;7.238;2023-04-15T05:44:04;7.90;99.90
1083;DHT22;530;51.448;7.238;2023-04-15T05:46:31;7.80;99.90
1083;DHT22;530;51.448;7.238;2023-04-15T05:48:57;7.80;99.90
1083;DHT22;530;51.448;7.238;2023-04-15T05:51:22;7.80;99.90
1083;DHT22;530;51.448;7.238;2023-04-15T05:53:48;7.80;99.90
1083;DHT22;530;51.448;7.238;2023-04-15T05:56:14;7.70;99.90
1083;DHT22;530;51.448;7.238;2023-04-15T05:58:40;7.90;99.90
1083;DHT22;530;51.448;7.238;2023-04-15T06:01:05;7.90;99.90
1083;DHT22;530;51.448;7.238;2023-04-15T06:03:31;7.80;99.90
1083;DHT22;530;51.448;7.238;2023-04-15T06:05:57;8.00;99.90
1083;DHT22;530;51.448;7.238;2023-04-15T06:08:23;7.90;99.90
1083;DHT22;530;51.448;7.238;2023-04-15T06:10:49;7.90;99.90
1083;DHT22;530;51.448;7.238;2023-04-15T06:13:15;8.00;99.90
1083;DHT22;530;51.448;7.238;2023-04-15T06:15:41;8.10;99.90
1083;DHT22;530;51.448;7.238;2023-04-15T06:18:07;8.10;99.90
1083;DHT22;530;51.448;7.238;2023-04-15T06:20:33;8.10;99.90
1083;DHT22;530;51.448;7.238;2023-04-15T06:22:58;8.20;99.90
1083;DHT22;530;51.448;7.238;2023-04-15T06:25:24;8.20;99.90
1083;DHT22;530;51.448;7.238;2023-04-15T06:27:50;8.40;99.90
1083;DHT22;530;51.448;7.238;2023-04-15T06:30:16;8.20;99.90
1083;DHT22;530;51.448;7.238;2023-04-15T06:32:41;8.30;99.90
1083;DHT22;530;51.448;7.238;2023-04-15T06:35:07;8.30;99.90
1083;DHT22;530;51.448;7.238;2023-04-15T06:37:33;8.40;99.90
1083;DHT22;530;51.448;7.238;2023-04-15T06:39:59;8.40;99.90
1083;DHT22;530;51.448;7.238;2023-04-15T06:42:24;8.50;99.90
1083;DHT22;530;51.448;7.238;2023-04-15T06:44:50;8.50;99.90
1083;DHT22;530;51.448;7.238;2023-04-15T06:47:16;8.40;99.90
1083;DHT22;530;51.448;7.238;2023-04-15T06:49:42;8.40;99.90
1083;DHT22;530;51.448;7.238;2023-04-15T06:52:09;8.50;99.90
1083;DHT22;530;51.448;7.238;2023-04-15T06:54:35;8.60;99.90
1083;DHT22;530;51.448;7.238;2023-04-15T06:57:01;8.60;99.90
1083;DHT22;530;51.448;7.238;2023-04-15T06:59:27;8.70;99.90
1083;DHT22;530;51.448;7.238;2023-04-15T07:01:53;8.70;99.90
1083;DHT22;530;51.448;7.238;2023-04-15T07:04:18;8.80;99.90
1083;DHT22;530;51.448;7.238;2023-04-15T07:06:45;8.80;99.90
1083;DHT22;530;51.448;7.238;2023-04-15T07:09:11;8.80;99.90
1083;DHT22;530;51.448;7.238;2023-04-15T07:11:36;8.80;99.90
1083;DHT22;530;51.448;7.238;2023-04-15T07:14:02;9.00;99.90
1083;DHT22;530;51.448;7.238;2023-04-15T07:16:28;8.90;99.90
1083;DHT22;530;51.448;7.238;2023-04-15T07:18:54;8.90;99.90
1083;DHT22;530;51.448;7.238;2023-04-15T07:21:20;9.00;99.90
1083;DHT22;530;51.448;7.238;2023-04-15T07:23:46;9.00;99.90
1083;DHT22;530;51.448;7.238;2023-04-15T07:26:11;9.00;99.90
1083;DHT22;530;51.448;7.238;2023-04-15T07:28:37;9.00;99.90
1083;DHT22;530;51.448;7.238;2023-04-15T07:31:03;9.10;99.90
1083;DHT22;530;51.448;7.238;2023-04-15T07:33:28;9.10;99.90
1083;DHT22;530;51.448;7.238;2023-04-15T07:35:54;9.10;99.90
1083;DHT22;530;51.448;7.238;2023-04-15T07:38:20;9.20;99.90
1083;DHT22;530;51.448;7.238;2023-04-15T07:40:46;9.20;99.90
1083;DHT22;530;51.448;7.238;2023-04-15T07:43:12;9.20;99.90
1083;DHT22;530;51.448;7.238;2023-04-15T07:45:38;9.30;99.90
1083;DHT22;530;51.448;7.238;2023-04-15T07:48:04;9.30;99.90
1083;DHT22;530;51.448;7.238;2023-04-15T07:50:31;9.40;99.90
1083;DHT22;530;51.448;7.238;2023-04-15T07:52:57;9.40;99.90
1083;DHT22;530;51.448;7.238;2023-04-15T07:55:22;9.50;99.90
1083;DHT22;530;51.448;7.238;2023-04-15T07:57:48;9.50;99.90
1083;DHT22;530;51.448;7.238;2023-04-15T08:00:15;9.60;99.90
1083;DHT22;530;51.448;7.238;2023-04-15T08:02:44;9.60;99.90
1083;DHT22;530;51.448;7.238;2023-04-15T08:05:12;9.60;99.90
1083;DHT22;530;51.448;7.238;2023-04-15T08:07:38;9.70;99.90
1083;DHT22;530;51.448;7.238;2023-04-15T08:10:05;9.70;99.90
1083;DHT22;530;51.448;7.238;2023-04-15T08:12:30;9.80;99.90
1083;DHT22;530;51.448;7.238;2023-04-15T08:14:56;9.80;99.90
1083;DHT22;530;51.448;7.238;2023-04-15T08:17:22;9.80;99.90
1083;DHT22;530;51.448;7.238;2023-04-15T08:19:48;9.90;99.90
1083;DHT22;530;51.448;7.238;2023-04-15T08:22:14;10.00;99.90
1083;DHT22;530;51.448;7.238;2023-04-15T08:24:40;10.00;99.90
1083;DHT22;530;51.448;7.238;2023-04-15T08:27:06;10.10;99.90
1083;DHT22;530;51.448;7.238;2023-04-15T08:29:33;10.10;99.90
1083;DHT22;530;51.448;7.238;2023-04-15T08:31:59;10.20;99.90
1083;DHT22;530;51.448;7.238;2023-04-15T08:34:26;10.20;99.90
1083;DHT22;530;51.448;7.238;2023-04-15T08:36:52;10.10;99.90
1083;DHT22;530;51.448;7.238;2023-04-15T08:39:17;10.00;99.90
1083;DHT22;530;51.448;7.238;2023-04-15T08:42:03;10.10;99.90
1083;DHT22;530;51.448;7.238;2023-04-15T08:44:33;10.20;99.90
1083;DHT22;530;51.448;7.238;2023-04-15T08:47:02;10.30;99.90
1083;DHT22;530;51.448;7.238;2023-04-15T08:49:28;10.30;99.90
1083;DHT22;530;51.448;7.238;2023-04-15T08:51:54;10.40;99.90
1083;DHT22;530;51.448;7.238;2023-04-15T08:54:25;10.40;99.90
1083;DHT22;530;51.448;7.238;2023-04-15T08:56:52;10.50;99.90
1083;DHT22;530;51.448;7.238;2023-04-15T08:59:20;10.60;99.90
1083;DHT22;530;51.448;7.238;2023-04-15T09:01:47;10.70;99.90
1083;DHT22;530;51.448;7.238;2023-04-15T09:04:13;10.80;99.90
1083;DHT22;530;51.448;7.238;2023-04-15T09:06:39;10.90;99.90
1083;DHT22;530;51.448;7.238;2023-04-15T09:09:06;11.00;99.90
1083;DHT22;530;51.448;7.238;2023-04-15T09:11:31;10.90;99.90
1083;DHT22;530;51.448;7.238;2023-04-15T09:13:57;10.80;99.90
1083;DHT22;530;51.448;7.238;2023-04-15T09:16:23;10.70;99.90
1083;DHT22;530;51.448;7.238;2023-04-15T09:18:48;10.70;99.90
1083;DHT22;530;51.448;7.238;2023-04-15T09:21:16;10.70;99.90
1083;DHT22;530;51.448;7.238;2023-04-15T09:23:58;10.70;99.90
1083;DHT22;530;51.448;7.238;2023-04-15T09:26:36;10.70;99.90
1083;DHT22;530;51.448;7.238;2023-04-15T09:29:09;10.70;99.90
1083;DHT22;530;51.448;7.238;2023-04-15T09:31:56;10.60;99.90
1083;DHT22;530;51.448;7.238;2023-04-15T09:34:34;10.60;99.90
1083;DHT22;530;51.448;7.238;2023-04-15T09:37:01;10.60;99.90
1083;DHT22;530;51.448;7.238;2023-04-15T09:39:26;10.50;99.90
1083;DHT22;530;51.448;7.238;2023-04-15T09:42:05;10.50;99.90
1083;DHT22;530;51.448;7.238;2023-04-15T09:44:31;10.60;99.90
1083;DHT22;530;51.448;7.238;2023-04-15T09:46:57;10.60;99.90
1083;DHT22;530;51.448;7.238;2023-04-15T09:49:23;10.50;99.90
1083;DHT22;530;51.448;7.238;2023-04-15T09:51:49;10.50;99.90
1083;DHT22;530;51.448;7.238;2023-04-15T09:54:19;10.40;99.90
1083;DHT22;530;51.448;7.238;2023-04-15T09:56:46;10.40;99.90
1083;DHT22;530;51.448;7.238;2023-04-15T09:59:11;10.50;99.90
1083;DHT22;530;51.448;7.238;2023-04-15T10:01:37;10.50;99.90
1083;DHT22;530;51.448;7.238;2023-04-15T10:04:05;10.50;99.90
1083;DHT22;530;51.448;7.238;2023-04-15T10:06:31;10.50;99.90
1083;DHT22;530;51.448;7.238;2023-04-15T10:08:57;10.50;99.90
1083;DHT22;530;51.448;7.238;2023-04-15T10:11:25;10.50;99.90
1083;DHT22;530;51.448;7.238;2023-04-15T10:13:53;10.50;99.90
1083;DHT22;530;51.448;7.238;2023-04-15T10:16:20;10.60;99.90
1083;DHT22;530;51.448;7.238;2023-04-15T10:18:52;10.70;99.90
1083;DHT22;530;51.448;7.238;2023-04-15T10:21:20;10.70;99.90
1083;DHT22;530;51.448;7.238;2023-04-15T10:23:47;10.70;99.90
1083;DHT22;530;51.448;7.238;2023-04-15T10:26:13;10.70;99.90
1083;DHT22;530;51.448;7.238;2023-04-15T10:28:43;10.80;99.90
1083;DHT22;530;51.448;7.238;2023-04-15T10:31:12;10.80;99.90
1083;DHT22;530;51.448;7.238;2023-04-15T10:33:40;10.80;99.90
1083;DHT22;530;51.448;7.238;2023-04-15T10:36:07;10.80;99.90
1083;DHT22;530;51.448;7.238;2023-04-15T10:38:40;10.70;99.90
1083;DHT22;530;51.448;7.238;2023-04-15T10:41:13;10.80;99.90
1083;DHT22;530;51.448;7.238;2023-04-15T10:44:00;10.80;99.90
1083;DHT22;530;51.448;7.238;2023-04-15T10:46:40;10.80;99.90
1083;DHT22;530;51.448;7.238;2023-04-15T10:51:38;10.70;99.90
1083;DHT22;530;51.448;7.238;2023-04-15T10:59:31;10.60;99.90
1083;DHT22;530;51.448;7.238;2023-04-15T11:02:06;10.60;99.90
1083;DHT22;530;51.448;7.238;2023-04-15T11:04:51;10.60;99.90
1083;DHT22;530;51.448;7.238;2023-04-15T11:07:53;10.50;99.90
1083;DHT22;530;51.448;7.238;2023-04-15T11:12:58;10.40;99.90
1083;DHT22;530;51.448;7.238;2023-04-15T11:15:44;10.40;99.90
1083;DHT22;530;51.448;7.238;2023-04-15T11:20:44;10.50;99.90
1083;DHT22;530;51.448;7.238;2023-04-15T11:23:10;10.60;99.90
1083;DHT22;530;51.448;7.238;2023-04-15T11:25:36;10.50;99.90
1083;DHT22;530;51.448;7.238;2023-04-15T11:28:03;10.50;99.90
1083;DHT22;530;51.448;7.238;2023-04-15T11:30:31;10.50;99.90
1083;DHT22;530;51.448;7.238;2023-04-15T11:33:05;10.50;99.90
1083;DHT22;530;51.448;7.238;2023-04-15T11:35:31;10.50;99.90
1083;DHT22;530;51.448;7.238;2023-04-15T11:37:57;10.60;99.90
1083;DHT22;530;51.448;7.238;2023-04-15T11:40:24;10.60;99.90
1083;DHT22;530;51.448;7.238;2023-04-15T11:45:47;10.50;99.90
1083;DHT22;530;51.448;7.238;2023-04-15T11:48:13;10.50;99.90
1083;DHT22;530;51.448;7.238;2023-04-15T11:50:39;10.50;99.90
1083;DHT22;530;51.448;7.238;2023-04-15T11:53:07;10.50;99.90
1083;DHT22;530;51.448;7.238;2023-04-15T11:55:49;10.50;99.90
1083;DHT22;530;51.448;7.238;2023-04-15T11:58:17;10.50;99.90
1083;DHT22;530;51.448;7.238;2023-04-15T12:00:51;10.60;99.90
1083;DHT22;530;51.448;7.238;2023-04-15T12:06:05;10.70;99.90
1083;DHT22;530;51.448;7.238;2023-04-15T12:11:29;10.70;99.90
1083;DHT22;530;51.448;7.238;2023-04-15T12:14:17;10.70;99.90
1083;DHT22;530;51.448;7.238;2023-04-15T12:16:48;10.70;99.90
1083;DHT22;530;51.448;7.238;2023-04-15T12:19:36;10.70;99.90
1083;DHT22;530;51.448;7.238;2023-04-15T12:22:03;10.70;99.90
1083;DHT22;530;51.448;7.238;2023-04-15T12:24:34;10.70;99.90
1083;DHT22;530;51.448;7.238;2023-04-15T12:27:04;10.70;99.90
1083;DHT22;530;51.448;7.238;2023-04-15T12:29:31;10.70;99.90
1083;DHT22;530;51.448;7.238;2023-04-15T12:32:04;10.70;99.90
1083;DHT22;530;51.448;7.238;2023-04-15T12:34:56;10.70;99.90
1083;DHT22;530;51.448;7.238;2023-04-15T12:37:22;10.60;99.90
1083;DHT22;530;51.448;7.238;2023-04-15T12:39:48;10.70;99.90
1083;DHT22;530;51.448;7.238;2023-04-15T12:42:15;10.70;99.90
1083;DHT22;530;51.448;7.238;2023-04-15T12:44:41;10.80;99.90
1083;DHT22;530;51.448;7.238;2023-04-15T12:47:08;10.80;99.90
1083;DHT22;530;51.448;7.238;2023-04-15T12:49:35;10.70;99.90
1083;DHT22;530;51.448;7.238;2023-04-15T12:52:01;10.70;99.90
1083;DHT22;530;51.448;7.238;2023-04-15T12:54:28;10.70;99.90
1083;DHT22;530;51.448;7.238;2023-04-15T12:56:55;10.70;99.90
1083;DHT22;530;51.448;7.238;2023-04-15T12:59:20;10.70;99.90
1083;DHT22;530;51.448;7.238;2023-04-15T13:01:48;10.80;99.90
1083;DHT22;530;51.448;7.238;2023-04-15T13:04:15;10.80;99.90
1083;DHT22;530;51.448;7.238;2023-04-15T13:06:41;10.80;99.90
1083;DHT22;530;51.448;7.238;2023-04-15T13:09:07;10.80;99.90
1083;DHT22;530;51.448;7.238;2023-04-15T13:11:33;10.80;99.90
1083;DHT22;530;51.448;7.238;2023-04-15T13:14:03;10.80;99.90
1083;DHT22;530;51.448;7.238;2023-04-15T13:16:29;10.80;99.90
1083;DHT22;530;51.448;7.238;2023-04-15T13:18:56;10.90;99.90
1083;DHT22;530;51.448;7.238;2023-04-15T13:21:22;10.80;99.90
1083;DHT22;530;51.448;7.238;2023-04-15T13:23:49;10.90;99.90
1083;DHT22;530;51.448;7.238;2023-04-15T13:26:17;10.90;99.90
1083;DHT22;530;51.448;7.238;2023-04-15T13:28:44;10.90;99.90
1083;DHT22;530;51.448;7.238;2023-04-15T13:31:11;10.90;99.90
1083;DHT22;530;51.448;7.238;2023-04-15T13:33:37;10.90;99.90
1083;DHT22;530;51.448;7.238;2023-04-15T13:36:03;10.90;99.90
1083;DHT22;530;51.448;7.238;2023-04-15T13:38:28;10.90;99.90
1083;DHT22;530;51.448;7.238;2023-04-15T13:40:54;11.00;99.90
1083;DHT22;530;51.448;7.238;2023-04-15T13:43:20;10.90;99.90
1083;DHT22;530;51.448;7.238;2023-04-15T13:45:46;10.90;99.90
1083;DHT22;530;51.448;7.238;2023-04-15T13:48:12;10.80;99.90
1083;DHT22;530;51.448;7.238;2023-04-15T13:50:38;10.90;99.90
1083;DHT22;530;51.448;7.238;2023-04-15T13:53:04;10.90;99.90
1083;DHT22;530;51.448;7.238;2023-04-15T13:55:30;10.90;99.90
1083;DHT22;530;51.448;7.238;2023-04-15T13:57:55;11.00;99.90
1083;DHT22;530;51.448;7.238;2023-04-15T14:00:21;11.00;99.90
1083;DHT22;530;51.448;7.238;2023-04-15T14:02:47;11.00;99.90
1083;DHT22;530;51.448;7.238;2023-04-15T14:05:13;11.00;99.90
1083;DHT22;530;51.448;7.238;2023-04-15T14:07:38;11.00;99.90
1083;DHT22;530;51.448;7.238;2023-04-15T14:10:04;11.00;99.90
1083;DHT22;530;51.448;7.238;2023-04-15T14:12:30;11.00;99.90
1083;DHT22;530;51.448;7.238;2023-04-15T14:14:56;11.00;99.90
1083;DHT22;530;51.448;7.238;2023-04-15T14:17:21;11.00;99.90
1083;DHT22;530;51.448;7.238;2023-04-15T14:19:47;11.00;99.90
1083;DHT22;530;51.448;7.238;2023-04-15T14:22:13;10.90;99.90
1083;DHT22;530;51.448;7.238;2023-04-15T14:24:38;10.90;99.90
1083;DHT22;530;51.448;7.238;2023-04-15T14:27:05;10.90;99.90
1083;DHT22;530;51.448;7.238;2023-04-15T14:29:33;10.90;99.90
1083;DHT22;530;51.448;7.238;2023-04-15T14:31:58;10.90;99.90
1083;DHT22;530;51.448;7.238;2023-04-15T14:34:24;10.90;99.90
1083;DHT22;530;51.448;7.238;2023-04-15T14:36:51;10.90;99.90
1083;DHT22;530;51.448;7.238;2023-04-15T14:39:19;10.90;99.90
1083;DHT22;530;51.448;7.238;2023-04-15T14:41:45;10.90;99.90
1083;DHT22;530;51.448;7.238;2023-04-15T14:44:11;10.90;99.90
1083;DHT22;530;51.448;7.238;2023-04-15T14:46:37;10.90;99.90
1083;DHT22;530;51.448;7.238;2023-04-15T14:49:04;10.90;99.90
1083;DHT22;530;51.448;7.238;2023-04-15T14:51:31;10.90;99.90
1083;DHT22;530;51.448;7.238;2023-04-15T14:53:57;10.90;99.90
1083;DHT22;530;51.448;7.238;2023-04-15T14:56:22;10.90;99.90
1083;DHT22;530;51.448;7.238;2023-04-15T14:58:48;10.90;99.90
1083;DHT22;530;51.448;7.238;2023-04-15T15:01:14;10.90;99.90
1083;DHT22;530;51.448;7.238;2023-04-15T15:03:40;10.80;99.90
1083;DHT22;530;51.448;7.238;2023-04-15T15:06:06;10.80;99.90
1083;DHT22;530;51.448;7.238;2023-04-15T15:08:32;10.80;99.90
1083;DHT22;530;51.448;7.238;2023-04-15T15:10:57;10.80;99.90
1083;DHT22;530;51.448;7.238;2023-04-15T15:13:23;10.80;99.90
1083;DHT22;530;51.448;7.238;2023-04-15T15:15:50;10.70;99.90
1083;DHT22;530;51.448;7.238;2023-04-15T15:18:16;10.70;99.90
1083;DHT22;530;51.448;7.238;2023-04-15T15:20:43;10.70;99.90
1083;DHT22;530;51.448;7.238;2023-04-15T15:23:09;10.70;99.90
1083;DHT22;530;51.448;7.238;2023-04-15T15:25:34;10.70;99.90
1083;DHT22;530;51.448;7.238;2023-04-15T15:28:00;10.70;99.90
1083;DHT22;530;51.448;7.238;2023-04-15T15:30:26;10.70;99.90
1083;DHT22;530;51.448;7.238;2023-04-15T15:32:51;10.70;99.90
1083;DHT22;530;51.448;7.238;2023-04-15T15:35:17;10.70;99.90
1083;DHT22;530;51.448;7.238;2023-04-15T15:37:44;10.70;99.90
1083;DHT22;530;51.448;7.238;2023-04-15T15:40:10;10.70;99.90
1083;DHT22;530;51.448;7.238;2023-04-15T15:42:36;10.70;99.90
1083;DHT22;530;51.448;7.238;2023-04-15T15:45:03;10.70;99.90
1083;DHT22;530;51.448;7.238;2023-04-15T15:47:29;10.60;99.90
1083;DHT22;530;51.448;7.238;2023-04-15T15:49:54;10.60;99.90
1083;DHT22;530;51.448;7.238;2023-04-15T15:52:20;10.70;99.90
1083;DHT22;530;51.448;7.238;2023-04-15T15:54:46;10.60;99.90
1083;DHT22;530;51.448;7.238;2023-04-15T15:57:12;10.60;99.90
1083;DHT22;530;51.448;7.238;2023-04-15T15:59:37;10.60;99.90
1083;DHT22;530;51.448;7.238;2023-04-15T16:02:12;10.50;99.90
1083;DHT22;530;51.448;7.238;2023-04-15T16:04:38;10.50;99.90
1083;DHT22;530;51.448;7.238;2023-04-15T16:07:04;10.50;99.90
1083;DHT22;530;51.448;7.238;2023-04-15T16:09:30;10.50;99.90
1083;DHT22;530;51.448;7.238;2023-04-15T16:11:56;10.50;99.90
1083;DHT22;530;51.448;7.238;2023-04-15T16:14:23;10.50;99.90
1083;DHT22;530;51.448;7.238;2023-04-15T16:16:49;10.50;99.90
1083;DHT22;530;51.448;7.238;2023-04-15T16:19:15;10.50;99.90
1083;DHT22;530;51.448;7.238;2023-04-15T16:21:42;10.50;99.90
1083;DHT22;530;51.448;7.238;2023-04-15T16:24:07;10.50;99.90
1083;DHT22;530;51.448;7.238;2023-04-15T16:26:33;10.40;99.90
1083;DHT22;530;51.448;7.238;2023-04-15T16:28:59;10.40;99.90
1083;DHT22;530;51.448;7.238;2023-04-15T16:31:26;10.40;99.90
1083;DHT22;530;51.448;7.238;2023-04-15T16:33:51;10.40;99.90
1083;DHT22;530;51.448;7.238;2023-04-15T16:36:17;10.40;99.90
1083;DHT22;530;51.448;7.238;2023-04-15T16:38:43;10.40;99.90
1083;DHT22;530;51.448;7.238;2023-04-15T16:41:13;10.30;99.90
1083;DHT22;530;51.448;7.238;2023-04-15T16:43:39;10.40;99.90
1083;DHT22;530;51.448;7.238;2023-04-15T16:46:04;10.40;99.90